sensor_id;sensor_type;location;lat;lon;timestamp;pressure;altitude;pressure_sealevel;temperature;humidity
52535;BME280;38443;53.164;5.802;2022-11-14T00:00:37;101977.28;;;3.69;100.00
52535;BME280;38443;53.164;5.802;2022-11-14T00:03:04;101969.34;;;3.71;100.00
52535;BME280;38443;53.164;5.802;2022-11-14T00:05:30;101978.25;;;3.74;100.00
52535;BME280;38443;53.164;5.802;2022-11-14T00:07:56;101972.97;;;3.76;100.00
52535;BME280;38443;53.164;5.802;2022-11-14T00:10:21;101974.78;;;3.78;100.00
52535;BME280;38443;53.164;5.802;2022-11-14T00:12:47;101962.44;;;3.79;100.00
52535;BME280;38443;53.164;5.802;2022-11-14T00:15:12;101958.06;;;3.81;100.00
52535;BME280;38443;53.164;5.802;2022-11-14T00:17:38;101971.31;;;3.83;100.00
52535;BME280;38443;53.164;5.802;2022-11-14T00:20:04;101966.97;;;3.86;100.00
52535;BME280;38443;53.164;5.802;2022-11-14T00:22:30;101967.03;;;3.89;100.00
52535;BME280;38443;53.164;5.802;2022-11-14T00:24:55;101960.88;;;3.92;100.00
52535;BME280;38443;53.164;5.802;2022-11-14T00:27:20;101950.34;;;3.95;100.00
52535;BME280;38443;53.164;5.802;2022-11-14T00:29:46;101948.63;;;3.97;100.00
52535;BME280;38443;53.164;5.802;2022-11-14T00:32:11;101941.56;;;3.97;100.00
52535;BME280;38443;53.164;5.802;2022-11-14T00:34:36;101939.81;;;3.99;100.00
52535;BME280;38443;53.164;5.802;2022-11-14T00:37:02;101939.84;;;4.01;100.00
52535;BME280;38443;53.164;5.802;2022-11-14T00:39:27;101938.13;;;4.03;100.00
52535;BME280;38443;53.164;5.802;2022-11-14T00:41:52;101951.34;;;4.05;100.00
52535;BME280;38443;53.164;5.802;2022-11-14T00:44:18;101948.75;;;4.06;100.00
52535;BME280;38443;53.164;5.802;2022-11-14T00:46:43;101936.38;;;4.07;100.00
52535;BME280;38443;53.164;5.802;2022-11-14T00:49:09;101939.94;;;4.09;100.00
52535;BME280;38443;53.164;5.802;2022-11-14T00:51:34;101929.34;;;4.09;100.00
52535;BME280;38443;53.164;5.802;2022-11-14T00:53:59;101932.94;;;4.12;100.00
52535;BME280;38443;53.164;5.802;2022-11-14T00:56:25;101923.22;;;4.13;100.00
52535;BME280;38443;53.164;5.802;2022-11-14T00:58:50;101928.56;;;4.16;100.00
52535;BME280;38443;53.164;5.802;2022-11-14T01:01:16;101925.06;;;4.17;100.00
52535;BME280;38443;53.164;5.802;2022-11-14T01:03:41;101920.66;;;4.17;100.00
52535;BME280;38443;53.164;5.802;2022-11-14T01:06:09;101922.41;;;4.18;100.00
52535;BME280;38443;53.164;5.802;2022-11-14T01:08:35;101905.66;;;4.19;100.00
52535;BME280;38443;53.164;5.802;2022-11-14T01:11:00;101912.75;;;4.22;100.00
52535;BME280;38443;53.164;5.802;2022-11-14T01:13:32;101912.78;;;4.24;100.00
52535;BME280;38443;53.164;5.802;2022-11-14T01:15:59;101915.47;;;4.27;100.00
52535;BME280;38443;53.164;5.802;2022-11-14T01:18:26;101922.56;;;4.28;100.00
52535;BME280;38443;53.164;5.802;2022-11-14T01:20:52;101911.06;;;4.29;100.00
52535;BME280;38443;53.164;5.802;2022-11-14T01:23:17;101913.72;;;4.29;100.00
52535;BME280;38443;53.164;5.802;2022-11-14T01:25:43;101909.34;;;4.29;100.00
52535;BME280;38443;53.164;5.802;2022-11-14T01:28:10;101909.34;;;4.31;100.00
52535;BME280;38443;53.164;5.802;2022-11-14T01:30:36;101909.38;;;4.32;100.00
52535;BME280;38443;53.164;5.802;2022-11-14T01:33:02;101904.13;;;4.35;100.00
52535;BME280;38443;53.164;5.802;2022-11-14T01:35:30;101897.97;;;4.38;100.00
52535;BME280;38443;53.164;5.802;2022-11-14T01:37:55;101895.34;;;4.39;100.00
52535;BME280;38443;53.164;5.802;2022-11-14T01:40:22;101886.50;;;4.39;100.00
52535;BME280;38443;53.164;5.802;2022-11-14T01:45:55;101877.72;;;4.43;100.00
52535;BME280;38443;53.164;5.802;2022-11-14T01:48:50;101874.19;;;4.44;100.00
52535;BME280;38443;53.164;5.802;2022-11-14T01:53:56;101865.34;;;4.44;100.00
52535;BME280;38443;53.164;5.802;2022-11-14T01:56:35;101863.56;;;4.44;100.00
52535;BME280;38443;53.164;5.802;2022-11-14T01:59:15;101848.53;;;4.42;100.00
52535;BME280;38443;53.164;5.802;2022-11-14T02:01:47;101860.03;;;4.42;100.00
52535;BME280;38443;53.164;5.802;2022-11-14T02:04:18;101854.72;;;4.42;100.00
52535;BME280;38443;53.164;5.802;2022-11-14T02:06:47;101848.56;;;4.43;100.00
52535;BME280;38443;53.164;5.802;2022-11-14T02:09:13;101843.25;;;4.45;100.00
52535;BME280;38443;53.164;5.802;2022-11-14T02:11:43;101846.81;;;4.45;100.00
52535;BME280;38443;53.164;5.802;2022-11-14T02:14:09;101852.13;;;4.48;100.00
52535;BME280;38443;53.164;5.802;2022-11-14T02:16:36;101836.22;;;4.48;100.00
52535;BME280;38443;53.164;5.802;2022-11-14T02:19:04;101842.44;;;4.50;100.00
52535;BME280;38443;53.164;5.802;2022-11-14T02:21:30;101838.91;;;4.50;100.00
52535;BME280;38443;53.164;5.802;2022-11-14T02:23:55;101828.34;;;4.51;100.00
52535;BME280;38443;53.164;5.802;2022-11-14T02:26:22;101819.47;;;4.51;100.00
52535;BME280;38443;53.164;5.802;2022-11-14T02:28:48;101819.47;;;4.49;100.00
52535;BME280;38443;53.164;5.802;2022-11-14T02:31:14;101815.06;;;4.50;100.00
52535;BME280;38443;53.164;5.802;2022-11-14T02:33:40;101805.34;;;4.52;100.00
52535;BME280;38443;53.164;5.802;2022-11-14T02:36:06;101800.94;;;4.52;100.00
52535;BME280;38443;53.164;5.802;2022-11-14T02:38:31;101792.97;;;4.52;100.00
52535;BME280;38443;53.164;5.802;2022-11-14T02:40:58;101787.66;;;4.49;100.00
52535;BME280;38443;53.164;5.802;2022-11-14T02:43:24;101782.34;;;4.51;100.00
52535;BME280;38443;53.164;5.802;2022-11-14T02:45:50;101778.81;;;4.50;100.00
52535;BME280;38443;53.164;5.802;2022-11-14T02:48:15;101778.78;;;4.49;100.00
52535;BME280;38443;53.164;5.802;2022-11-14T02:50:40;101777.94;;;4.50;100.00
52535;BME280;38443;53.164;5.802;2022-11-14T02:53:07;101767.28;;;4.45;100.00
52535;BME280;38443;53.164;5.802;2022-11-14T02:55:37;101768.19;;;4.46;100.00
52535;BME280;38443;53.164;5.802;2022-11-14T02:58:03;101749.56;;;4.43;100.00
52535;BME280;38443;53.164;5.802;2022-11-14T03:00:28;101775.19;;;4.42;100.00
52535;BME280;38443;53.164;5.802;2022-11-14T03:02:54;101754.84;;;4.39;100.00
52535;BME280;38443;53.164;5.802;2022-11-14T03:05:19;101758.38;;;4.38;100.00
52535;BME280;38443;53.164;5.802;2022-11-14T03:07:45;101750.41;;;4.38;100.00
52535;BME280;38443;53.164;5.802;2022-11-14T03:10:10;101756.63;;;4.39;100.00
52535;BME280;38443;53.164;5.802;2022-11-14T03:12:36;101741.59;;;4.38;100.00
52535;BME280;38443;53.164;5.802;2022-11-14T03:15:03;101744.22;;;4.36;100.00
52535;BME280;38443;53.164;5.802;2022-11-14T03:17:33;101738.03;;;4.36;100.00
52535;BME280;38443;53.164;5.802;2022-11-14T03:19:59;101733.59;;;4.36;100.00
52535;BME280;38443;53.164;5.802;2022-11-14T03:22:24;101731.84;;;4.37;100.00
52535;BME280;38443;53.164;5.802;2022-11-14T03:24:50;101723.91;;;4.35;100.00
52535;BME280;38443;53.164;5.802;2022-11-14T03:27:15;101721.25;;;4.35;100.00
52535;BME280;38443;53.164;5.802;2022-11-14T03:29:41;101723.91;;;4.35;100.00
52535;BME280;38443;53.164;5.802;2022-11-14T03:32:06;101725.66;;;4.36;100.00
52535;BME280;38443;53.164;5.802;2022-11-14T03:34:31;101723.88;;;4.37;100.00
52535;BME280;38443;53.164;5.802;2022-11-14T03:36:56;101725.72;;;4.41;100.00
52535;BME280;38443;53.164;5.802;2022-11-14T03:39:22;101720.41;;;4.43;100.00
52535;BME280;38443;53.164;5.802;2022-11-14T03:41:47;101716.91;;;4.44;100.00
52535;BME280;38443;53.164;5.802;2022-11-14T03:44:12;101714.28;;;4.45;100.00
52535;BME280;38443;53.164;5.802;2022-11-14T03:46:38;101715.13;;;4.44;100.00
52535;BME280;38443;53.164;5.802;2022-11-14T03:49:03;101711.59;;;4.44;100.00
52535;BME280;38443;53.164;5.802;2022-11-14T03:51:29;101709.84;;;4.44;100.00
52535;BME280;38443;53.164;5.802;2022-11-14T03:53:54;101711.59;;;4.44;100.00
52535;BME280;38443;53.164;5.802;2022-11-14T03:56:19;101709.84;;;4.46;100.00
52535;BME280;38443;53.164;5.802;2022-11-14T03:58:45;101708.97;;;4.45;100.00
52535;BME280;38443;53.164;5.802;2022-11-14T04:01:10;101707.19;;;4.44;100.00
52535;BME280;38443;53.164;5.802;2022-11-14T04:03:36;101712.50;;;4.44;100.00
52535;BME280;38443;53.164;5.802;2022-11-14T04:06:01;101708.97;;;4.45;100.00
52535;BME280;38443;53.164;5.802;2022-11-14T04:08:27;101697.47;;;4.43;100.00
52535;BME280;38443;53.164;5.802;2022-11-14T04:10:52;101708.06;;;4.45;100.00
52535;BME280;38443;53.164;5.802;2022-11-14T04:13:18;101696.59;;;4.44;100.00
52535;BME280;38443;53.164;5.802;2022-11-14T04:15:43;101694.81;;;4.43;100.00
52535;BME280;38443;53.164;5.802;2022-11-14T04:18:08;101703.66;;;4.44;100.00
52535;BME280;38443;53.164;5.802;2022-11-14T04:20:34;101704.50;;;4.43;100.00
52535;BME280;38443;53.164;5.802;2022-11-14T04:22:59;101708.94;;;4.42;100.00
52535;BME280;38443;53.164;5.802;2022-11-14T04:25:24;101705.41;;;4.43;100.00
52535;BME280;38443;53.164;5.802;2022-11-14T04:27:50;101700.09;;;4.42;100.00
52535;BME280;38443;53.164;5.802;2022-11-14T04:30:15;101706.31;;;4.44;100.00
52535;BME280;38443;53.164;5.802;2022-11-14T04:32:40;101701.84;;;4.43;100.00
52535;BME280;38443;53.164;5.802;2022-11-14T04:35:06;101697.47;;;4.43;100.00
52535;BME280;38443;53.164;5.802;2022-11-14T04:37:31;101694.78;;;4.40;100.00
52535;BME280;38443;53.164;5.802;2022-11-14T04:39:56;101681.53;;;4.40;100.00
52535;BME280;38443;53.164;5.802;2022-11-14T04:42:25;101686.81;;;4.38;100.00
52535;BME280;38443;53.164;5.802;2022-11-14T04:44:50;101680.66;;;4.39;100.00
52535;BME280;38443;53.164;5.802;2022-11-14T04:47:16;101678.84;;;4.35;100.00
52535;BME280;38443;53.164;5.802;2022-11-14T04:49:41;101676.13;;;4.29;100.00
52535;BME280;38443;53.164;5.802;2022-11-14T04:52:07;101674.31;;;4.27;100.00
52535;BME280;38443;53.164;5.802;2022-11-14T04:54:32;101662.81;;;4.23;100.00
52535;BME280;38443;53.164;5.802;2022-11-14T04:56:57;101659.25;;;4.23;100.00
52535;BME280;38443;53.164;5.802;2022-11-14T04:59:22;101664.56;;;4.21;100.00
52535;BME280;38443;53.164;5.802;2022-11-14T05:01:48;101661.00;;;4.20;100.00
52535;BME280;38443;53.164;5.802;2022-11-14T05:04:14;101660.09;;;4.18;100.00
52535;BME280;38443;53.164;5.802;2022-11-14T05:06:40;101648.56;;;4.15;100.00
52535;BME280;38443;53.164;5.802;2022-11-14T05:09:05;101647.72;;;4.16;100.00
52535;BME280;38443;53.164;5.802;2022-11-14T05:11:30;101651.22;;;4.15;100.00
52535;BME280;38443;53.164;5.802;2022-11-14T05:13:59;101653.88;;;4.15;100.00
52535;BME280;38443;53.164;5.802;2022-11-14T05:16:24;101634.44;;;4.13;100.00
52535;BME280;38443;53.164;5.802;2022-11-14T05:18:52;101633.56;;;4.12;100.00
52535;BME280;38443;53.164;5.802;2022-11-14T05:21:19;101629.97;;;4.09;100.00
52535;BME280;38443;53.164;5.802;2022-11-14T05:23:44;101630.88;;;4.08;100.00
52535;BME280;38443;53.164;5.802;2022-11-14T05:26:10;101627.34;;;4.07;100.00
52535;BME280;38443;53.164;5.802;2022-11-14T05:28:36;101626.44;;;4.07;100.00
52535;BME280;38443;53.164;5.802;2022-11-14T05:31:06;101627.34;;;4.07;100.00
52535;BME280;38443;53.164;5.802;2022-11-14T05:33:32;101629.06;;;4.07;100.00
52535;BME280;38443;53.164;5.802;2022-11-14T05:36:02;101629.09;;;4.05;100.00
52535;BME280;38443;53.164;5.802;2022-11-14T05:38:28;101624.63;;;4.04;100.00
52535;BME280;38443;53.164;5.802;2022-11-14T05:40:53;101617.56;;;4.05;100.00
52535;BME280;38443;53.164;5.802;2022-11-14T05:43:18;101614.00;;;3.99;100.00
52535;BME280;38443;53.164;5.802;2022-11-14T05:45:44;101608.72;;;3.99;100.00
52535;BME280;38443;53.164;5.802;2022-11-14T05:48:09;101609.56;;;3.97;100.00
52535;BME280;38443;53.164;5.802;2022-11-14T05:50:34;101612.19;;;3.95;100.00
52535;BME280;38443;53.164;5.802;2022-11-14T05:53:00;101614.81;;;3.94;100.00
52535;BME280;38443;53.164;5.802;2022-11-14T05:55:25;101618.34;;;3.93;100.00
52535;BME280;38443;53.164;5.802;2022-11-14T05:57:50;101613.94;;;3.93;100.00
52535;BME280;38443;53.164;5.802;2022-11-14T06:00:16;101613.94;;;3.92;100.00
52535;BME280;38443;53.164;5.802;2022-11-14T06:02:41;101608.59;;;3.90;100.00
52535;BME280;38443;53.164;5.802;2022-11-14T06:05:07;101614.81;;;3.92;100.00
52535;BME280;38443;53.164;5.802;2022-11-14T06:07:33;101613.94;;;3.93;100.00
52535;BME280;38443;53.164;5.802;2022-11-14T06:09:58;101613.06;;;3.94;100.00
52535;BME280;38443;53.164;5.802;2022-11-14T06:12:24;101612.19;;;3.95;100.00
52535;BME280;38443;53.164;5.802;2022-11-14T06:14:49;101615.75;;;3.97;100.00
52535;BME280;38443;53.164;5.802;2022-11-14T06:17:14;101607.81;;;3.97;100.00
52535;BME280;38443;53.164;5.802;2022-11-14T06:19:39;101612.22;;;3.98;100.00
52535;BME280;38443;53.164;5.802;2022-11-14T06:22:05;101620.19;;;4.00;100.00
52535;BME280;38443;53.164;5.802;2022-11-14T06:24:30;101622.84;;;4.02;100.00
52535;BME280;38443;53.164;5.802;2022-11-14T06:26:55;101623.75;;;4.04;100.00
52535;BME280;38443;53.164;5.802;2022-11-14T06:29:21;101623.75;;;4.04;100.00
52535;BME280;38443;53.164;5.802;2022-11-14T06:31:46;101627.28;;;4.03;100.00
52535;BME280;38443;53.164;5.802;2022-11-14T06:34:11;101620.22;;;4.03;100.00
52535;BME280;38443;53.164;5.802;2022-11-14T06:36:37;101629.03;;;4.02;100.00
52535;BME280;38443;53.164;5.802;2022-11-14T06:39:02;101624.63;;;4.01;100.00
52535;BME280;38443;53.164;5.802;2022-11-14T06:41:28;101617.53;;;4.00;100.00
52535;BME280;38443;53.164;5.802;2022-11-14T06:43:53;101614.91;;;4.02;100.00
52535;BME280;38443;53.164;5.802;2022-11-14T06:46:19;101621.09;;;4.02;100.00
52535;BME280;38443;53.164;5.802;2022-11-14T06:48:46;101628.13;;;4.00;100.00
52535;BME280;38443;53.164;5.802;2022-11-14T06:51:13;101616.63;;;3.98;100.00
52535;BME280;38443;53.164;5.802;2022-11-14T06:53:38;101626.38;;;4.02;100.00
52535;BME280;38443;53.164;5.802;2022-11-14T06:56:08;101614.91;;;4.02;100.00
52535;BME280;38443;53.164;5.802;2022-11-14T06:58:37;101626.41;;;4.04;100.00
52535;BME280;38443;53.164;5.802;2022-11-14T07:01:09;101627.28;;;4.04;100.00
52535;BME280;38443;53.164;5.802;2022-11-14T07:03:35;101628.19;;;4.03;100.00
52535;BME280;38443;53.164;5.802;2022-11-14T07:06:03;101631.72;;;4.05;100.00
52535;BME280;38443;53.164;5.802;2022-11-14T07:08:28;101639.66;;;4.07;100.00
52535;BME280;38443;53.164;5.802;2022-11-14T07:11:00;101640.56;;;4.09;100.00
52535;BME280;38443;53.164;5.802;2022-11-14T07:13:25;101629.97;;;4.09;100.00
52535;BME280;38443;53.164;5.802;2022-11-14T07:15:53;101642.38;;;4.10;100.00
52535;BME280;38443;53.164;5.802;2022-11-14T07:18:19;101639.75;;;4.11;100.00
52535;BME280;38443;53.164;5.802;2022-11-14T07:20:45;101637.09;;;4.13;100.00
52535;BME280;38443;53.164;5.802;2022-11-14T07:23:11;101629.19;;;4.16;100.00
52535;BME280;38443;53.164;5.802;2022-11-14T07:25:36;101632.72;;;4.16;100.00
52535;BME280;38443;53.164;5.802;2022-11-14T07:28:01;101626.50;;;4.11;100.00
52535;BME280;38443;53.164;5.802;2022-11-14T07:30:27;101630.91;;;4.12;100.00
52535;BME280;38443;53.164;5.802;2022-11-14T07:32:55;101633.53;;;4.11;100.00
52535;BME280;38443;53.164;5.802;2022-11-14T07:35:22;101626.44;;;4.07;100.00
52535;BME280;38443;53.164;5.802;2022-11-14T07:37:47;101625.53;;;4.05;100.00
52535;BME280;38443;53.164;5.802;2022-11-14T07:40:13;101627.28;;;4.04;100.00
52535;BME280;38443;53.164;5.802;2022-11-14T07:42:38;101624.63;;;4.04;100.00
52535;BME280;38443;53.164;5.802;2022-11-14T07:45:04;101628.19;;;4.06;100.00
52535;BME280;38443;53.164;5.802;2022-11-14T07:47:29;101625.53;;;4.06;100.00
52535;BME280;38443;53.164;5.802;2022-11-14T07:49:54;101622.03;;;4.07;100.00
52535;BME280;38443;53.164;5.802;2022-11-14T07:52:20;101620.25;;;4.06;100.00
52535;BME280;38443;53.164;5.802;2022-11-14T08:02:13;101618.53;;;4.11;100.00
52535;BME280;38443;53.164;5.802;2022-11-14T08:04:40;101615.06;;;4.15;100.00
52535;BME280;38443;53.164;5.802;2022-11-14T08:11:35;101612.47;;;4.23;100.00
52535;BME280;38443;53.164;5.802;2022-11-14T08:14:50;101611.59;;;4.26;100.00
52535;BME280;38443;53.164;5.802;2022-11-14T08:24:04;101614.34;;;4.33;100.00
52535;BME280;38443;53.164;5.802;2022-11-14T08:26:54;101622.28;;;4.33;100.00
52535;BME280;38443;53.164;5.802;2022-11-14T08:29:45;101623.22;;;4.40;100.00
52535;BME280;38443;53.164;5.802;2022-11-14T08:32:28;101610.91;;;4.48;100.00
52535;BME280;38443;53.164;5.802;2022-11-14T08:41:22;101606.53;;;4.53;100.00
52535;BME280;38443;53.164;5.802;2022-11-14T08:47:57;101596.72;;;4.42;100.00
52535;BME280;38443;53.164;5.802;2022-11-14T09:08:03;101579.13;;;4.50;100.00
52535;BME280;38443;53.164;5.802;2022-11-14T09:11:11;101573.88;;;4.59;100.00
52535;BME280;38443;53.164;5.802;2022-11-14T09:21:01;101563.41;;;4.77;100.00
52535;BME280;38443;53.164;5.802;2022-11-14T09:23:48;101566.94;;;4.83;99.75
52535;BME280;38443;53.164;5.802;2022-11-14T09:26:31;101555.47;;;4.82;99.18
52535;BME280;38443;53.164;5.802;2022-11-14T09:29:19;101549.31;;;4.88;99.54
52535;BME280;38443;53.164;5.802;2022-11-14T09:32:08;101549.34;;;4.98;99.52
52535;BME280;38443;53.164;5.802;2022-11-14T09:34:50;101552.97;;;5.10;99.01
52535;BME280;38443;53.164;5.802;2022-11-14T09:38:13;101536.19;;;5.23;98.70
52535;BME280;38443;53.164;5.802;2022-11-14T09:45:31;101506.97;;;5.08;97.05
52535;BME280;38443;53.164;5.802;2022-11-14T10:10:03;101521.16;;;5.17;96.18
52535;BME280;38443;53.164;5.802;2022-11-14T10:20:30;101508.81;;;5.41;95.99
52535;BME280;38443;53.164;5.802;2022-11-14T10:41:00;101487.66;;;5.66;94.04
52535;BME280;38443;53.164;5.802;2022-11-14T10:46:46;101481.44;;;5.68;93.96
52535;BME280;38443;53.164;5.802;2022-11-14T10:49:53;101472.59;;;5.74;93.93
52535;BME280;38443;53.164;5.802;2022-11-14T10:52:35;101485.00;;;5.78;93.67
52535;BME280;38443;53.164;5.802;2022-11-14T10:55:19;101462.00;;;5.82;93.82
52535;BME280;38443;53.164;5.802;2022-11-14T10:57:53;101462.00;;;5.88;94.13
52535;BME280;38443;53.164;5.802;2022-11-14T11:00:53;101461.97;;;5.91;93.64
52535;BME280;38443;53.164;5.802;2022-11-14T11:14:16;101441.63;;;6.14;93.18
52535;BME280;38443;53.164;5.802;2022-11-14T11:17:28;101438.97;;;6.17;92.47
52535;BME280;38443;53.164;5.802;2022-11-14T11:28:29;101436.28;;;6.28;92.37
52535;BME280;38443;53.164;5.802;2022-11-14T11:31:21;101432.75;;;6.28;91.70
52535;BME280;38443;53.164;5.802;2022-11-14T11:45:23;101391.94;;;6.44;91.82
52535;BME280;38443;53.164;5.802;2022-11-14T11:52:01;101365.34;;;6.41;91.60
52535;BME280;38443;53.164;5.802;2022-11-14T11:55:20;101371.56;;;6.40;91.45
52535;BME280;38443;53.164;5.802;2022-11-14T11:58:31;101364.44;;;6.47;92.20
52535;BME280;38443;53.164;5.802;2022-11-14T12:04:54;101356.47;;;6.47;91.54
52535;BME280;38443;53.164;5.802;2022-11-14T12:07:50;101360.88;;;6.49;90.90
52535;BME280;38443;53.164;5.802;2022-11-14T12:30:49;101364.06;;;7.16;89.15
52535;BME280;38443;53.164;5.802;2022-11-14T12:36:58;101344.19;;;7.60;88.07
52535;BME280;38443;53.164;5.802;2022-11-14T12:43:23;101349.28;;;7.88;86.32
52535;BME280;38443;53.164;5.802;2022-11-14T12:56:58;101326.56;;;7.44;85.87
52535;BME280;38443;53.164;5.802;2022-11-14T13:10:37;101319.84;;;6.98;87.24
52535;BME280;38443;53.164;5.802;2022-11-14T13:20:59;101287.94;;;6.89;88.10
52535;BME280;38443;53.164;5.802;2022-11-14T13:24:24;101302.13;;;6.89;88.49
52535;BME280;38443;53.164;5.802;2022-11-14T13:33:41;101290.69;;;6.78;89.28
52535;BME280;38443;53.164;5.802;2022-11-14T14:01:37;101275.69;;;6.68;90.43
52535;BME280;38443;53.164;5.802;2022-11-14T14:10:57;101284.59;;;6.64;90.38
52535;BME280;38443;53.164;5.802;2022-11-14T14:13:57;101277.47;;;6.63;90.35
52535;BME280;38443;53.164;5.802;2022-11-14T14:20:38;101288.16;;;6.59;90.60
52535;BME280;38443;53.164;5.802;2022-11-14T14:34:44;101278.44;;;6.49;91.13
52535;BME280;38443;53.164;5.802;2022-11-14T14:37:50;101279.34;;;6.48;91.44
52535;BME280;38443;53.164;5.802;2022-11-14T14:40:56;101267.84;;;6.48;91.78
52535;BME280;38443;53.164;5.802;2022-11-14T14:43:42;101271.38;;;6.47;91.16
52535;BME280;38443;53.164;5.802;2022-11-14T14:46:27;101264.31;;;6.44;91.59
52535;BME280;38443;53.164;5.802;2022-11-14T14:49:51;101261.69;;;6.38;91.83
52535;BME280;38443;53.164;5.802;2022-11-14T14:52:28;101247.50;;;6.36;91.40
52535;BME280;38443;53.164;5.802;2022-11-14T14:55:15;101251.94;;;6.34;91.84
52535;BME280;38443;53.164;5.802;2022-11-14T14:58:20;101251.06;;;6.29;91.62
52535;BME280;38443;53.164;5.802;2022-11-14T15:01:16;101246.66;;;6.25;92.18
52535;BME280;38443;53.164;5.802;2022-11-14T15:04:31;101245.81;;;6.19;92.01
52535;BME280;38443;53.164;5.802;2022-11-14T15:07:39;101226.34;;;6.14;91.71
52535;BME280;38443;53.164;5.802;2022-11-14T15:10:34;101223.72;;;6.08;92.46
52535;BME280;38443;53.164;5.802;2022-11-14T15:13:25;101212.22;;;6.03;92.86
52535;BME280;38443;53.164;5.802;2022-11-14T15:19:16;101231.75;;;5.88;92.70
52535;BME280;38443;53.164;5.802;2022-11-14T15:28:34;101236.22;;;5.63;93.37
52535;BME280;38443;53.164;5.802;2022-11-14T15:38:28;101243.34;;;5.52;94.20
52535;BME280;38443;53.164;5.802;2022-11-14T15:41:23;101249.53;;;5.60;94.54
52535;BME280;38443;53.164;5.802;2022-11-14T15:44:28;101244.22;;;5.69;93.91
52535;BME280;38443;53.164;5.802;2022-11-14T15:47:43;101244.16;;;5.78;94.35
52535;BME280;38443;53.164;5.802;2022-11-14T15:50:53;101243.28;;;5.84;93.80
52535;BME280;38443;53.164;5.802;2022-11-14T15:57:12;101239.72;;;5.91;93.96
52535;BME280;38443;53.164;5.802;2022-11-14T16:00:11;101239.72;;;5.97;93.82
52535;BME280;38443;53.164;5.802;2022-11-14T16:03:11;101258.28;;;6.01;93.50
52535;BME280;38443;53.164;5.802;2022-11-14T16:06:09;101241.44;;;6.06;93.41
52535;BME280;38443;53.164;5.802;2022-11-14T16:13:06;101244.06;;;6.12;93.33
52535;BME280;38443;53.164;5.802;2022-11-14T16:15:37;101234.31;;;6.14;93.34
52535;BME280;38443;53.164;5.802;2022-11-14T16:18:31;101242.25;;;6.21;91.89
52535;BME280;38443;53.164;5.802;2022-11-14T16:21:22;101243.13;;;6.26;92.18
52535;BME280;38443;53.164;5.802;2022-11-14T16:27:30;101234.22;;;6.31;92.00
52535;BME280;38443;53.164;5.802;2022-11-14T16:30:16;101228.03;;;6.32;91.75
52535;BME280;38443;53.164;5.802;2022-11-14T16:36:44;101230.69;;;6.35;91.23
52535;BME280;38443;53.164;5.802;2022-11-14T16:39:36;101228.91;;;6.37;91.23
52535;BME280;38443;53.164;5.802;2022-11-14T16:42:37;101223.56;;;6.37;91.17
52535;BME280;38443;53.164;5.802;2022-11-14T16:49:10;101224.44;;;6.38;90.79
52535;BME280;38443;53.164;5.802;2022-11-14T16:51:50;101212.03;;;6.38;91.13
52535;BME280;38443;53.164;5.802;2022-11-14T16:54:36;101213.81;;;6.38;91.01
52535;BME280;38443;53.164;5.802;2022-11-14T16:57:26;101211.16;;;6.39;90.94
52535;BME280;38443;53.164;5.802;2022-11-14T17:03:11;101218.22;;;6.39;91.61
52535;BME280;38443;53.164;5.802;2022-11-14T17:05:50;101226.19;;;6.41;91.96
52535;BME280;38443;53.164;5.802;2022-11-14T17:08:23;101217.34;;;6.40;91.86
52535;BME280;38443;53.164;5.802;2022-11-14T17:11:07;101208.50;;;6.39;91.62
52535;BME280;38443;53.164;5.802;2022-11-14T17:13:48;101199.63;;;6.39;92.06
52535;BME280;38443;53.164;5.802;2022-11-14T17:16:55;101199.63;;;6.39;91.93
52535;BME280;38443;53.164;5.802;2022-11-14T17:23:18;101194.34;;;6.37;92.13
52535;BME280;38443;53.164;5.802;2022-11-14T17:38:36;101180.16;;;6.32;92.33
52535;BME280;38443;53.164;5.802;2022-11-14T17:41:10;101178.38;;;6.33;92.30
52535;BME280;38443;53.164;5.802;2022-11-14T17:43:50;101183.72;;;6.31;92.60
52535;BME280;38443;53.164;5.802;2022-11-14T17:50:19;101179.31;;;6.29;92.48
52535;BME280;38443;53.164;5.802;2022-11-14T17:53:36;101179.31;;;6.29;93.04
52535;BME280;38443;53.164;5.802;2022-11-14T18:03:40;101173.13;;;6.27;93.40
52535;BME280;38443;53.164;5.802;2022-11-14T18:06:44;101166.03;;;6.26;93.28
52535;BME280;38443;53.164;5.802;2022-11-14T18:16:03;101168.72;;;6.23;93.71
52535;BME280;38443;53.164;5.802;2022-11-14T18:18:41;101166.06;;;6.23;93.97
52535;BME280;38443;53.164;5.802;2022-11-14T18:25:03;101153.69;;;6.20;93.76
52535;BME280;38443;53.164;5.802;2022-11-14T18:27:33;101147.47;;;6.19;93.79
52535;BME280;38443;53.164;5.802;2022-11-14T18:30:25;101124.47;;;6.14;93.91
52535;BME280;38443;53.164;5.802;2022-11-14T18:33:13;101134.25;;;6.10;94.57
52535;BME280;38443;53.164;5.802;2022-11-14T18:54:22;101150.16;;;6.16;94.12
52535;BME280;38443;53.164;5.802;2022-11-14T18:57:06;101141.25;;;6.21;94.59
52535;BME280;38443;53.164;5.802;2022-11-14T18:59:53;101135.94;;;6.24;93.92
52535;BME280;38443;53.164;5.802;2022-11-14T19:02:35;101137.69;;;6.25;94.11
52535;BME280;38443;53.164;5.802;2022-11-14T19:05:28;101144.78;;;6.26;94.12
52535;BME280;38443;53.164;5.802;2022-11-14T19:08:26;101143.88;;;6.28;94.12
52535;BME280;38443;53.164;5.802;2022-11-14T19:11:39;101146.53;;;6.30;94.18
52535;BME280;38443;53.164;5.802;2022-11-14T19:14:43;101141.16;;;6.31;94.05
52535;BME280;38443;53.164;5.802;2022-11-14T19:17:16;101129.66;;;6.31;94.48
52535;BME280;38443;53.164;5.802;2022-11-14T19:19:59;101125.22;;;6.33;94.41
52535;BME280;38443;53.164;5.802;2022-11-14T19:22:33;101129.66;;;6.32;94.59
52535;BME280;38443;53.164;5.802;2022-11-14T19:25:18;101120.81;;;6.30;94.37
52535;BME280;38443;53.164;5.802;2022-11-14T19:28:08;101129.66;;;6.32;94.33
52535;BME280;38443;53.164;5.802;2022-11-14T19:31:05;101125.22;;;6.33;94.08